createdAt,value
2022-10-05T00:00:37.461Z,53.19
2022-10-05T00:01:37.480Z,50.33
2022-10-05T00:02:37.443Z,53.67
2022-10-05T00:03:37.429Z,52.99
2022-10-05T00:04:37.458Z,52.94
2022-10-05T00:05:37.410Z,53.76
2022-10-05T00:06:37.417Z,55.12
2022-10-05T00:07:37.406Z,53.13
2022-10-05T00:08:38.392Z,56.13
2022-10-05T00:09:37.382Z,55.15
2022-10-05T00:10:37.386Z,56.97
2022-10-05T00:11:37.375Z,55.34
2022-10-05T00:12:37.363Z,53.22
2022-10-05T00:13:38.359Z,50.93
2022-10-05T00:14:37.353Z,51.46
2022-10-05T00:15:37.358Z,52.59
2022-10-05T00:16:37.429Z,53.46
2022-10-05T00:17:37.650Z,57.25
2022-10-05T00:18:37.327Z,52.82
2022-10-05T00:19:37.335Z,54.01
2022-10-05T00:20:37.329Z,55.76
2022-10-05T00:21:37.302Z,55.53
2022-10-05T00:22:37.310Z,54.25
2022-10-05T00:23:37.294Z,51.06
2022-10-05T00:24:37.300Z,48.52
2022-10-05T00:25:37.298Z,50.95
2022-10-05T00:26:37.283Z,46.97
2022-10-05T00:27:37.279Z,47.35
2022-10-05T00:28:37.324Z,51.01
2022-10-05T00:29:37.255Z,50.73
2022-10-05T00:30:37.251Z,53.19
2022-10-05T00:31:37.323Z,53.32
2022-10-05T00:32:37.242Z,51.64
2022-10-05T00:33:37.226Z,49.45
2022-10-05T00:34:37.231Z,50.67
2022-10-05T00:35:37.230Z,56.11
2022-10-05T00:36:37.218Z,52.22
2022-10-05T00:37:37.218Z,49.57
2022-10-05T00:38:37.192Z,53.90
2022-10-05T00:39:37.191Z,54.98
2022-10-05T00:40:37.310Z,56.40
2022-10-05T00:41:37.168Z,53.63
2022-10-05T00:42:37.191Z,48.42
2022-10-05T00:43:37.159Z,49.24
2022-10-05T00:44:37.150Z,53.76
2022-10-05T00:45:37.178Z,53.48
2022-10-05T00:46:37.143Z,55.95
2022-10-05T00:47:37.137Z,53.94
2022-10-05T00:48:37.127Z,55.05
2022-10-05T00:49:37.122Z,55.76
2022-10-05T00:50:37.106Z,57.68
2022-10-05T00:51:37.103Z,55.91
2022-10-05T00:52:37.133Z,56.67
2022-10-05T00:53:37.113Z,54.65
2022-10-05T00:54:37.083Z,51.27
2022-10-05T00:55:37.085Z,55.71
2022-10-05T00:56:37.067Z,53.05
2022-10-05T00:57:37.066Z,49.52
2022-10-05T00:58:37.058Z,54.19
2022-10-05T00:59:37.057Z,50.56
2022-10-05T01:00:37.057Z,48.09
2022-10-05T01:01:37.112Z,53.06
2022-10-05T01:02:37.319Z,59.53
2022-10-05T01:03:38.025Z,57.18
2022-10-05T01:04:38.021Z,55.07
2022-10-05T01:05:37.002Z,54.11
2022-10-05T01:06:37.001Z,53.78
2022-10-05T01:07:37.009Z,52.70
2022-10-05T01:08:36.989Z,49.95
2022-10-05T01:09:36.992Z,55.25
2022-10-05T01:10:36.977Z,54.14
2022-10-05T01:11:36.968Z,52.60
2022-10-05T01:12:36.946Z,52.85
2022-10-05T01:13:36.965Z,50.80
2022-10-05T01:14:36.950Z,52.14
2022-10-05T01:15:36.929Z,49.66
2022-10-05T01:16:36.981Z,49.69
2022-10-05T01:17:36.931Z,53.24
2022-10-05T01:18:36.921Z,52.14
2022-10-05T01:19:36.921Z,50.50
2022-10-05T01:20:36.913Z,53.16
2022-10-05T01:21:36.898Z,53.92
2022-10-05T01:22:36.901Z,57.86
2022-10-05T01:23:36.901Z,56.25
2022-10-05T01:24:36.873Z,52.28
2022-10-05T01:25:36.869Z,51.92
2022-10-05T01:26:36.865Z,56.38
2022-10-05T01:27:36.865Z,56.25
2022-10-05T01:28:36.947Z,54.10
2022-10-05T01:29:36.850Z,58.60
2022-10-05T01:30:36.837Z,53.94
2022-10-05T01:31:36.949Z,53.46
2022-10-05T01:32:36.826Z,54.24
2022-10-05T01:33:36.825Z,52.77
2022-10-05T01:34:36.812Z,58.11
2022-10-05T01:35:36.810Z,60.36
2022-10-05T01:36:36.801Z,55.75
2022-10-05T01:37:36.794Z,54.30
2022-10-05T01:38:36.814Z,54.23
2022-10-05T01:39:36.785Z,55.00
2022-10-05T01:40:36.777Z,50.25
2022-10-05T01:41:36.778Z,52.40
2022-10-05T01:42:37.586Z,54.42
2022-10-05T01:43:36.765Z,56.69
2022-10-05T01:44:36.802Z,55.62
2022-10-05T01:45:36.796Z,53.70
2022-10-05T01:46:36.735Z,55.06
2022-10-05T01:47:36.725Z,50.57
2022-10-05T01:48:36.720Z,53.26
2022-10-05T01:49:36.731Z,55.44
2022-10-05T01:50:36.706Z,48.38
2022-10-05T01:51:36.725Z,52.80
2022-10-05T01:52:36.701Z,56.50
2022-10-05T01:53:36.694Z,54.20
2022-10-05T01:54:36.689Z,49.36
2022-10-05T01:55:36.686Z,53.75
2022-10-05T01:56:36.669Z,46.84
2022-10-05T01:57:36.660Z,46.59
2022-10-05T01:58:36.652Z,51.58
2022-10-05T01:59:36.662Z,52.56
2022-10-05T02:00:36.636Z,55.94
2022-10-05T02:01:36.732Z,52.88
2022-10-05T02:02:36.685Z,49.53
2022-10-05T02:03:36.624Z,52.95
2022-10-05T02:05:00.970Z,54.13
2022-10-05T02:05:38.609Z,51.47
2022-10-05T02:06:36.601Z,50.80
2022-10-05T02:07:36.596Z,51.84
2022-10-05T02:08:36.588Z,54.71
2022-10-05T02:09:36.601Z,50.95
2022-10-05T02:10:36.572Z,50.62
2022-10-05T02:11:36.572Z,54.72
2022-10-05T02:12:36.552Z,55.08
2022-10-05T02:13:36.550Z,54.90
2022-10-05T02:14:36.548Z,55.14
2022-10-05T02:15:36.596Z,57.58
2022-10-05T02:16:36.532Z,56.53
2022-10-05T02:17:36.530Z,55.81
2022-10-05T02:18:36.520Z,48.79
2022-10-05T02:19:36.527Z,51.40
2022-10-05T02:20:36.513Z,58.06
2022-10-05T02:21:36.537Z,52.93
2022-10-05T02:22:36.496Z,50.15
2022-10-05T02:23:36.484Z,52.52
2022-10-05T02:24:36.488Z,53.78
2022-10-05T02:25:36.492Z,54.69
2022-10-05T02:26:36.465Z,54.27
2022-10-05T02:27:36.453Z,55.19
2022-10-05T02:28:36.488Z,53.71
2022-10-05T02:29:36.443Z,52.59
2022-10-05T02:30:36.443Z,55.29
2022-10-05T02:31:36.466Z,54.83
2022-10-05T02:32:36.424Z,53.18
2022-10-05T02:33:36.412Z,57.16
2022-10-05T02:34:36.413Z,56.63
2022-10-05T02:35:36.416Z,55.51
2022-10-05T02:36:36.393Z,56.80
2022-10-05T02:37:36.386Z,59.85
2022-10-05T02:38:36.388Z,58.15
2022-10-05T02:39:36.381Z,56.72
2022-10-05T02:40:36.371Z,54.41
2022-10-05T02:41:36.390Z,55.35
2022-10-05T02:42:36.356Z,54.63
2022-10-05T02:43:36.348Z,56.26
2022-10-05T02:44:36.343Z,55.74
2022-10-05T02:45:36.368Z,57.45
2022-10-05T02:46:36.339Z,55.54
2022-10-05T02:47:36.316Z,54.83
2022-10-05T02:48:36.312Z,56.78
2022-10-05T02:49:36.310Z,55.53
2022-10-05T02:50:36.316Z,54.60
2022-10-05T02:51:36.297Z,56.39
2022-10-05T02:52:36.284Z,55.43
2022-10-05T02:53:36.283Z,57.56
2022-10-05T02:54:36.276Z,56.48
2022-10-05T02:55:36.272Z,56.88
2022-10-05T02:56:36.272Z,57.23
2022-10-05T02:57:36.259Z,58.63
2022-10-05T02:58:36.248Z,57.39
2022-10-05T02:59:36.237Z,57.92
2022-10-05T03:00:36.251Z,57.22
2022-10-05T03:01:36.354Z,57.80
2022-10-05T03:02:36.220Z,58.64
2022-10-05T03:03:36.207Z,58.38
2022-10-05T03:04:36.207Z,59.36
2022-10-05T03:05:36.206Z,60.57
2022-10-05T03:06:36.203Z,57.54
2022-10-05T03:07:36.192Z,58.38
2022-10-05T03:08:36.184Z,57.04
2022-10-05T03:09:36.180Z,58.50
2022-10-05T03:10:36.175Z,56.82
2022-10-05T03:11:36.165Z,58.79
2022-10-05T03:12:36.159Z,60.57
2022-10-05T03:13:36.147Z,60.50
2022-10-05T03:14:36.143Z,60.17
2022-10-05T03:15:36.123Z,57.98
2022-10-05T03:16:36.135Z,58.51
2022-10-05T03:17:36.119Z,59.21
2022-10-05T03:18:36.108Z,60.38
2022-10-05T03:19:36.100Z,59.84
2022-10-05T03:20:36.095Z,59.77
2022-10-05T03:21:36.111Z,59.49
2022-10-05T03:22:36.079Z,62.22
2022-10-05T03:23:36.107Z,59.60
2022-10-05T03:24:36.076Z,60.77
2022-10-05T03:25:36.071Z,59.78
2022-10-05T03:26:36.067Z,59.76
2022-10-05T03:27:36.059Z,60.36
2022-10-05T03:28:36.141Z,60.58
2022-10-05T03:29:36.035Z,60.52
2022-10-05T03:30:36.031Z,59.95
2022-10-05T03:31:36.060Z,59.60
2022-10-05T03:32:36.010Z,59.89
2022-10-05T03:33:37.011Z,61.13
2022-10-05T03:34:35.999Z,60.47
2022-10-05T03:35:35.999Z,60.75
2022-10-05T03:36:35.991Z,60.28
2022-10-05T03:37:35.988Z,61.13
2022-10-05T03:38:35.975Z,61.33
2022-10-05T03:39:35.977Z,62.30
2022-10-05T03:40:35.962Z,61.36
2022-10-05T03:41:35.955Z,60.09
2022-10-05T03:42:35.955Z,62.51
2022-10-05T03:43:35.939Z,62.54
2022-10-05T03:44:35.935Z,61.37
2022-10-05T03:45:35.952Z,61.38
2022-10-05T03:46:36.014Z,60.79
2022-10-05T03:47:35.919Z,61.72
2022-10-05T03:48:35.908Z,61.20
2022-10-05T03:49:35.903Z,62.25
2022-10-05T03:50:35.887Z,61.19
2022-10-05T03:51:35.902Z,59.46
2022-10-05T03:52:35.886Z,61.94
2022-10-05T03:53:35.873Z,61.39
2022-10-05T03:54:35.855Z,61.30
2022-10-05T03:55:35.864Z,62.02
2022-10-05T03:56:35.859Z,61.98
2022-10-05T03:57:35.847Z,62.27
2022-10-05T03:58:35.850Z,62.76
2022-10-05T03:59:35.831Z,60.55
2022-10-05T04:00:35.841Z,60.01
2022-10-05T04:01:35.899Z,61.15
2022-10-05T04:02:35.861Z,62.16
2022-10-05T04:03:35.820Z,61.58
2022-10-05T04:04:35.808Z,61.31
2022-10-05T04:05:35.792Z,61.42
2022-10-05T04:06:35.795Z,62.28
2022-10-05T04:07:35.799Z,61.93
2022-10-05T04:08:35.807Z,61.01
2022-10-05T04:09:35.771Z,61.59
2022-10-05T04:10:35.763Z,61.86
2022-10-05T04:11:35.756Z,62.34
2022-10-05T04:12:35.748Z,62.17
2022-10-05T04:13:35.755Z,60.85
2022-10-05T04:14:35.742Z,60.81
2022-10-05T04:15:35.765Z,60.83
2022-10-05T04:16:35.716Z,61.64
2022-10-05T04:17:35.707Z,61.38
2022-10-05T04:18:35.715Z,60.20
2022-10-05T04:19:36.695Z,59.99
2022-10-05T04:20:35.711Z,60.93
2022-10-05T04:21:35.688Z,61.78
2022-10-05T04:22:35.679Z,60.89
2022-10-05T04:23:35.692Z,61.37
2022-10-05T04:24:35.663Z,60.58
2022-10-05T04:25:35.654Z,60.95
2022-10-05T04:26:35.646Z,60.78
2022-10-05T04:27:35.643Z,60.75
2022-10-05T04:28:35.709Z,61.67
2022-10-05T04:29:35.627Z,61.06
2022-10-05T04:30:35.627Z,61.85
2022-10-05T04:31:35.699Z,62.50
2022-10-05T04:32:35.612Z,61.62
2022-10-05T04:33:35.607Z,62.26
2022-10-05T04:34:35.606Z,62.63
2022-10-05T04:35:35.588Z,61.77
2022-10-05T04:36:35.583Z,62.24
2022-10-05T04:37:35.587Z,63.52
2022-10-05T04:38:35.554Z,63.23
2022-10-05T04:39:35.575Z,63.13
2022-10-05T04:40:35.562Z,63.70
2022-10-05T04:41:35.543Z,64.18
2022-10-05T04:42:35.543Z,63.26
2022-10-05T04:43:35.539Z,64.58
2022-10-05T04:44:35.543Z,64.35
2022-10-05T04:45:35.576Z,66.26
2022-10-05T04:46:35.585Z,66.05
2022-10-05T04:47:35.514Z,65.00
2022-10-05T04:48:35.502Z,64.62
2022-10-05T04:49:35.518Z,65.53
2022-10-05T04:50:35.486Z,64.53
2022-10-05T04:51:35.482Z,64.41
2022-10-05T04:52:35.478Z,64.96
2022-10-05T04:53:35.464Z,64.90
2022-10-05T04:54:35.486Z,64.61
2022-10-05T04:55:35.457Z,64.98
2022-10-05T04:56:35.446Z,64.08
2022-10-05T04:57:35.462Z,62.76
2022-10-05T04:58:40.037Z,64.32
2022-10-05T04:59:37.418Z,63.15
2022-10-05T05:00:35.466Z,62.76
2022-10-05T05:01:35.406Z,63.04
2022-10-05T05:02:35.398Z,63.62
2022-10-05T05:03:35.435Z,65.10
2022-10-05T05:04:35.383Z,63.70
2022-10-05T05:05:35.383Z,64.93
2022-10-05T05:06:35.371Z,64.06
2022-10-05T05:07:35.365Z,64.17
2022-10-05T05:08:35.373Z,63.90
2022-10-05T05:09:35.351Z,63.46
2022-10-05T05:10:35.386Z,64.24
2022-10-05T05:11:35.330Z,63.48
2022-10-05T05:12:35.330Z,64.54
2022-10-05T05:13:35.335Z,64.81
2022-10-05T05:14:35.315Z,63.23
2022-10-05T05:15:35.326Z,64.19
2022-10-05T05:16:35.361Z,63.93
2022-10-05T05:17:35.297Z,64.07
2022-10-05T05:18:35.289Z,64.11
2022-10-05T05:19:35.282Z,64.05
2022-10-05T05:20:35.278Z,65.77
2022-10-05T05:21:35.279Z,64.23
2022-10-05T05:22:35.265Z,63.27
2022-10-05T05:23:35.274Z,64.35
2022-10-05T05:24:35.258Z,63.81
2022-10-05T05:25:35.245Z,63.42
2022-10-05T05:26:38.910Z,63.10
2022-10-05T05:27:36.226Z,63.77
2022-10-05T05:28:35.298Z,63.92
2022-10-05T05:29:35.214Z,64.19
2022-10-05T05:30:35.239Z,64.53
2022-10-05T05:31:35.237Z,64.98
2022-10-05T05:32:35.206Z,63.60
2022-10-05T05:33:35.190Z,63.81
2022-10-05T05:34:35.182Z,65.24
2022-10-05T05:35:35.178Z,64.43
2022-10-05T05:36:35.166Z,62.90
2022-10-05T05:37:35.163Z,64.04
2022-10-05T05:38:35.180Z,63.71
2022-10-05T05:39:35.145Z,62.57
2022-10-05T05:40:35.148Z,63.13
2022-10-05T05:41:35.134Z,63.40
2022-10-05T05:42:35.113Z,63.64
2022-10-05T05:43:35.126Z,64.91
2022-10-05T05:44:38.553Z,62.94
2022-10-05T05:45:36.095Z,63.30
2022-10-05T05:46:58.761Z,63.07
2022-10-05T05:47:37.159Z,62.97
2022-10-05T05:48:35.103Z,63.70
2022-10-05T05:49:35.074Z,63.00
2022-10-05T05:50:35.062Z,62.27
2022-10-05T05:51:35.053Z,63.17
2022-10-05T05:52:35.056Z,63.90
2022-10-05T05:53:35.051Z,64.71
2022-10-05T05:54:35.030Z,63.05
2022-10-05T05:55:35.032Z,63.55
2022-10-05T05:56:35.029Z,63.93
2022-10-05T05:57:35.013Z,63.84
2022-10-05T05:58:35.013Z,62.02
2022-10-05T05:59:35.030Z,62.94
2022-10-05T06:00:35.015Z,61.52
2022-10-05T06:01:34.984Z,65.61
2022-10-05T06:02:35.094Z,65.14
2022-10-05T06:03:34.975Z,61.25
2022-10-05T06:04:34.975Z,62.27
2022-10-05T06:05:34.961Z,62.81
2022-10-05T06:06:34.956Z,62.54
2022-10-05T06:07:34.946Z,62.26
2022-10-05T06:08:34.942Z,62.45
2022-10-05T06:09:34.966Z,62.93
2022-10-05T06:10:34.972Z,63.16
2022-10-05T06:11:34.921Z,61.95
2022-10-05T06:12:34.950Z,63.05
2022-10-05T06:13:34.911Z,61.30
2022-10-05T06:14:34.925Z,60.79
2022-10-05T06:15:35.287Z,63.81
2022-10-05T06:16:34.949Z,62.51
2022-10-05T06:17:34.869Z,61.71
2022-10-05T06:18:34.865Z,63.08
2022-10-05T06:19:34.861Z,64.46
2022-10-05T06:20:34.876Z,72.40
2022-10-05T06:21:34.849Z,72.87
2022-10-05T06:22:34.841Z,64.76
2022-10-05T06:23:34.825Z,66.94
2022-10-05T06:24:35.832Z,73.65
2022-10-05T06:25:34.829Z,67.01
2022-10-05T06:26:34.823Z,62.48
2022-10-05T06:27:34.808Z,63.20
2022-10-05T06:28:34.939Z,60.60
2022-10-05T06:29:34.836Z,62.15
2022-10-05T06:30:34.817Z,62.33
2022-10-05T06:31:34.840Z,63.18
2022-10-05T06:32:34.924Z,62.41
2022-10-05T06:33:34.763Z,61.93
2022-10-05T06:34:34.765Z,62.58
2022-10-05T06:35:34.790Z,62.94
2022-10-05T06:36:34.743Z,61.44
2022-10-05T06:37:35.749Z,62.20
2022-10-05T06:38:34.734Z,62.03
2022-10-05T06:39:34.732Z,65.37
2022-10-05T06:40:34.725Z,63.33
2022-10-05T06:41:34.747Z,63.01
2022-10-05T06:42:34.708Z,61.76
2022-10-05T06:43:34.702Z,61.69
2022-10-05T06:44:34.696Z,62.47
2022-10-05T06:45:34.733Z,61.56
2022-10-05T06:46:34.702Z,62.83
2022-10-05T06:47:34.664Z,61.27
2022-10-05T06:48:34.713Z,60.79
2022-10-05T06:49:34.665Z,61.77
2022-10-05T06:50:34.653Z,61.73
2022-10-05T06:51:34.673Z,60.55
2022-10-05T06:52:34.642Z,60.57
2022-10-05T06:53:34.637Z,60.60
2022-10-05T06:54:34.628Z,60.18
2022-10-05T06:55:34.619Z,62.09
2022-10-05T06:56:34.617Z,60.29
2022-10-05T06:57:34.612Z,60.14
2022-10-05T06:58:34.604Z,58.34
2022-10-05T06:59:34.593Z,61.35
2022-10-05T07:00:34.589Z,59.62
2022-10-05T07:01:34.631Z,59.71
2022-10-05T07:02:34.758Z,60.38
2022-10-05T07:03:34.572Z,60.32
2022-10-05T07:04:36.961Z,60.36
2022-10-05T07:05:35.568Z,59.89
2022-10-05T07:06:34.549Z,60.55
2022-10-05T07:07:34.552Z,58.78
2022-10-05T07:08:34.528Z,61.95
2022-10-05T07:09:34.530Z,59.19
2022-10-05T07:10:34.513Z,60.63
2022-10-05T07:11:34.516Z,61.38
2022-10-05T07:12:34.513Z,59.97
2022-10-05T07:13:34.497Z,60.78
2022-10-05T07:14:34.493Z,59.44
2022-10-05T07:15:34.488Z,62.05
2022-10-05T07:16:34.573Z,62.03
2022-10-05T07:17:34.552Z,59.93
2022-10-05T07:18:34.473Z,59.30
2022-10-05T07:19:34.465Z,59.95
2022-10-05T07:20:34.457Z,59.22
2022-10-05T07:21:34.446Z,59.61
2022-10-05T07:22:34.685Z,58.04
2022-10-05T07:23:34.503Z,60.88
2022-10-05T07:24:34.436Z,60.49
2022-10-05T07:25:34.427Z,61.77
2022-10-05T07:26:34.420Z,61.12
2022-10-05T07:27:34.416Z,59.29
2022-10-05T07:28:34.481Z,60.47
2022-10-05T07:29:34.400Z,59.80
2022-10-05T07:30:34.422Z,59.37
2022-10-05T07:31:34.381Z,59.40
2022-10-05T07:32:34.380Z,61.80
2022-10-05T07:33:34.381Z,62.17
2022-10-05T07:34:34.364Z,59.35
2022-10-05T07:35:34.356Z,59.90
2022-10-05T07:36:34.361Z,60.29
2022-10-05T07:37:34.343Z,61.20
2022-10-05T07:38:34.357Z,60.68
2022-10-05T07:39:58.604Z,58.71
2022-10-05T07:40:36.324Z,59.22
2022-10-05T07:41:34.316Z,57.19
2022-10-05T07:42:36.374Z,58.39
2022-10-05T07:43:51.445Z,60.02
2022-10-05T07:44:36.306Z,59.48
2022-10-05T07:45:34.329Z,61.17
2022-10-05T07:46:34.284Z,60.47
2022-10-05T07:47:34.268Z,59.26
2022-10-05T07:48:34.276Z,60.09
2022-10-05T07:49:34.277Z,60.05
2022-10-05T07:50:34.256Z,60.45
2022-10-05T07:51:34.252Z,58.98
2022-10-05T07:52:35.040Z,59.62
2022-10-05T07:53:35.263Z,58.52
2022-10-05T07:54:34.245Z,58.38
2022-10-05T07:55:34.233Z,58.51
2022-10-05T07:56:34.221Z,58.53
2022-10-05T07:57:34.212Z,59.80
2022-10-05T07:58:34.212Z,60.21
2022-10-05T07:59:34.408Z,60.04
2022-10-05T08:00:34.190Z,59.90
2022-10-05T08:01:34.245Z,59.46
2022-10-05T08:02:34.393Z,60.17
2022-10-05T08:03:34.177Z,60.31
2022-10-05T08:04:38.105Z,60.19
2022-10-05T08:05:35.156Z,59.80
2022-10-05T08:06:34.164Z,60.70
2022-10-05T08:07:34.149Z,59.40
2022-10-05T08:08:34.151Z,60.38
2022-10-05T08:09:34.180Z,59.95
2022-10-05T08:10:34.128Z,60.02
2022-10-05T08:11:34.120Z,60.42
2022-10-05T08:12:34.148Z,59.82
2022-10-05T08:13:34.096Z,58.72
2022-10-05T08:14:34.131Z,59.91
2022-10-05T08:15:34.186Z,59.19
2022-10-05T08:16:34.101Z,59.22
2022-10-05T08:17:34.080Z,59.73
2022-10-05T08:18:34.112Z,62.19
2022-10-05T08:19:34.195Z,59.95
2022-10-05T08:20:34.060Z,58.67
2022-10-05T08:21:34.077Z,60.11
2022-10-05T08:22:34.060Z,59.38
2022-10-05T08:23:34.060Z,60.46
2022-10-05T08:24:34.076Z,60.07
2022-10-05T08:25:34.038Z,58.73
2022-10-05T08:26:34.056Z,61.29
2022-10-05T08:27:34.044Z,62.03
2022-10-05T08:28:34.066Z,62.91
2022-10-05T08:29:34.050Z,62.09
2022-10-05T08:30:34.040Z,61.39
2022-10-05T08:31:34.106Z,61.60
2022-10-05T08:32:33.988Z,61.50
2022-10-05T08:33:34.024Z,59.51
2022-10-05T08:34:33.976Z,59.32
2022-10-05T08:35:33.994Z,58.49
2022-10-05T08:36:33.967Z,59.81
2022-10-05T08:37:33.977Z,61.23
2022-10-05T08:38:33.948Z,61.30
2022-10-05T08:39:33.942Z,57.95
2022-10-05T08:40:33.940Z,59.41
2022-10-05T08:41:33.939Z,59.16
2022-10-05T08:42:33.937Z,59.52
2022-10-05T08:43:35.444Z,59.55
2022-10-05T08:44:34.916Z,62.14
2022-10-05T08:45:33.907Z,60.07
2022-10-05T08:46:33.948Z,61.40
2022-10-05T08:47:34.054Z,59.96
2022-10-05T08:48:33.893Z,58.36
2022-10-05T08:49:35.297Z,57.35
2022-10-05T08:50:34.883Z,60.21
2022-10-05T08:51:33.867Z,58.06
2022-10-05T08:52:33.888Z,60.28
2022-10-05T08:53:33.853Z,59.86
2022-10-05T08:54:33.843Z,57.80
2022-10-05T08:55:33.847Z,58.48
2022-10-05T08:56:33.840Z,59.19
2022-10-05T08:57:33.847Z,61.05
2022-10-05T08:58:33.816Z,58.53
2022-10-05T08:59:33.791Z,57.63
2022-10-05T09:00:34.825Z,58.09
2022-10-05T09:01:33.856Z,60.40
2022-10-05T09:02:34.049Z,60.72
2022-10-05T09:03:34.664Z,66.16
2022-10-05T09:04:34.782Z,60.39
2022-10-05T09:05:33.773Z,58.15
2022-10-05T09:06:33.769Z,59.49
2022-10-05T09:07:36.528Z,57.95
2022-10-05T09:08:33.770Z,59.11
2022-10-05T09:09:33.751Z,59.64
2022-10-05T09:10:33.748Z,59.17
2022-10-05T09:11:33.727Z,59.18
2022-10-05T09:12:33.754Z,58.81
2022-10-05T09:13:33.720Z,60.18
2022-10-05T09:14:33.723Z,60.54
2022-10-05T09:15:33.748Z,59.10
2022-10-05T09:16:33.708Z,59.37
2022-10-05T09:17:38.518Z,60.39
2022-10-05T09:18:35.687Z,59.63
2022-10-05T09:19:33.691Z,59.55
2022-10-05T09:20:33.685Z,58.13
2022-10-05T09:21:33.669Z,59.70
2022-10-05T09:22:33.663Z,58.87
2022-10-05T09:23:33.647Z,59.26
2022-10-05T09:24:33.647Z,59.12
2022-10-05T09:25:33.659Z,61.40
2022-10-05T09:26:33.636Z,59.36
2022-10-05T09:27:33.615Z,58.58
2022-10-05T09:28:33.780Z,60.39
2022-10-05T09:29:33.621Z,58.50
2022-10-05T09:30:33.603Z,59.22
2022-10-05T09:31:33.667Z,59.06
2022-10-05T09:32:33.596Z,59.17
2022-10-05T09:33:33.572Z,58.79
2022-10-05T09:34:33.583Z,60.98
2022-10-05T09:35:33.580Z,59.65
2022-10-05T09:36:33.567Z,59.82
2022-10-05T09:37:33.557Z,59.72
2022-10-05T09:38:33.571Z,60.06
2022-10-05T09:39:33.535Z,59.38
2022-10-05T09:40:33.543Z,59.16
2022-10-05T09:41:33.532Z,58.76
2022-10-05T09:42:33.527Z,59.04
2022-10-05T09:43:33.537Z,59.98
2022-10-05T09:44:33.516Z,59.74
2022-10-05T09:45:33.495Z,60.47
2022-10-05T09:46:33.594Z,58.53
2022-10-05T09:47:33.514Z,59.13
2022-10-05T09:48:33.491Z,59.54
2022-10-05T09:49:33.479Z,59.45
2022-10-05T09:50:33.480Z,58.14
2022-10-05T09:51:33.456Z,59.36
2022-10-05T09:52:33.465Z,60.10
2022-10-05T09:53:33.480Z,60.32
2022-10-05T09:54:33.444Z,60.58
2022-10-05T09:55:33.436Z,59.70
2022-10-05T09:56:33.451Z,58.62
2022-10-05T09:57:33.433Z,57.97
2022-10-05T09:58:33.450Z,58.39
2022-10-05T09:59:33.412Z,58.00
2022-10-05T10:00:33.404Z,60.27
2022-10-05T10:01:34.446Z,59.66
2022-10-05T10:02:34.493Z,60.33
2022-10-05T10:03:33.554Z,59.40
2022-10-05T10:04:33.383Z,60.22
2022-10-05T10:05:33.375Z,59.31
2022-10-05T10:06:33.371Z,60.12
2022-10-05T10:07:33.367Z,60.14
2022-10-05T10:08:33.372Z,59.16
2022-10-05T10:09:37.910Z,57.26
2022-10-05T10:10:35.355Z,59.83
2022-10-05T10:11:33.336Z,61.48
2022-10-05T10:12:33.331Z,59.46
2022-10-05T10:13:33.329Z,60.16
2022-10-05T10:14:33.319Z,59.67
2022-10-05T10:15:33.407Z,59.82
2022-10-05T10:16:33.291Z,60.02
2022-10-05T10:17:33.294Z,59.06
2022-10-05T10:18:33.304Z,58.20
2022-10-05T10:19:33.290Z,59.22
2022-10-05T10:20:33.275Z,60.34
2022-10-05T10:21:33.267Z,59.22
2022-10-05T10:22:33.255Z,59.23
2022-10-05T10:23:33.255Z,60.24
2022-10-05T10:24:33.260Z,61.60
2022-10-05T10:25:33.235Z,62.18
2022-10-05T10:26:33.235Z,60.79
2022-10-05T10:27:33.227Z,60.25
2022-10-05T10:28:33.271Z,60.83
2022-10-05T10:29:33.221Z,60.94
2022-10-05T10:30:35.776Z,61.54
2022-10-05T10:31:33.196Z,59.14
2022-10-05T10:32:33.289Z,60.15
2022-10-05T10:33:33.179Z,60.94
2022-10-05T10:34:33.187Z,61.53
2022-10-05T10:35:33.191Z,60.90
2022-10-05T10:36:33.172Z,60.66
2022-10-05T10:37:33.152Z,59.49
2022-10-05T10:38:33.148Z,60.72
2022-10-05T10:39:33.170Z,61.37
2022-10-05T10:40:33.127Z,60.80
2022-10-05T10:41:33.127Z,60.12
2022-10-05T10:42:33.116Z,61.55
2022-10-05T10:43:33.123Z,60.30
2022-10-05T10:44:33.115Z,61.66
2022-10-05T10:45:33.104Z,57.92
2022-10-05T10:46:33.110Z,61.33
2022-10-05T10:47:33.085Z,61.85
2022-10-05T10:48:33.073Z,61.33
2022-10-05T10:49:33.067Z,60.43
2022-10-05T10:50:33.078Z,60.27
2022-10-05T10:51:33.056Z,59.27
2022-10-05T10:52:33.041Z,61.01
2022-10-05T10:53:33.037Z,60.51
2022-10-05T10:54:33.037Z,60.54
2022-10-05T10:55:33.039Z,59.39
2022-10-05T10:56:33.033Z,61.14
2022-10-05T10:57:33.017Z,60.95
2022-10-05T10:58:33.031Z,60.48
2022-10-05T10:59:33.993Z,60.41
2022-10-05T11:00:32.994Z,60.34
2022-10-05T11:01:33.089Z,59.92
2022-10-05T11:02:33.033Z,59.30
2022-10-05T11:03:32.976Z,60.59
2022-10-05T11:04:33.013Z,59.56
2022-10-05T11:05:32.956Z,60.90
2022-10-05T11:06:32.987Z,60.19
2022-10-05T11:07:33.966Z,60.22
2022-10-05T11:08:32.945Z,61.07
2022-10-05T11:09:32.938Z,61.50
2022-10-05T11:10:32.943Z,62.09
2022-10-05T11:11:32.914Z,59.87
2022-10-05T11:12:34.710Z,60.50
2022-10-05T11:13:33.909Z,59.80
2022-10-05T11:14:32.892Z,61.24
2022-10-05T11:15:32.953Z,61.13
2022-10-05T11:16:32.895Z,60.90
2022-10-05T11:17:32.897Z,60.97
2022-10-05T11:18:32.890Z,62.12
2022-10-05T11:19:40.460Z,60.21
2022-10-05T11:20:34.865Z,59.45
2022-10-05T11:21:32.857Z,61.26
2022-10-05T11:22:32.860Z,59.94
2022-10-05T11:23:37.958Z,60.42
2022-10-05T11:24:34.844Z,63.97
2022-10-05T11:25:32.835Z,59.86
2022-10-05T11:26:32.820Z,60.69
2022-10-05T11:27:32.808Z,60.09
2022-10-05T11:28:32.884Z,62.19
2022-10-05T11:29:32.797Z,61.27
2022-10-05T11:30:32.793Z,60.63
2022-10-05T11:31:32.811Z,60.29
2022-10-05T11:32:32.776Z,62.59
2022-10-05T11:33:32.797Z,61.74
2022-10-05T11:34:32.768Z,61.24
2022-10-05T11:35:32.756Z,61.48
2022-10-05T11:36:32.773Z,62.00
2022-10-05T11:37:32.746Z,62.13
2022-10-05T11:38:32.733Z,61.17
2022-10-05T11:39:32.734Z,60.08
2022-10-05T11:40:32.728Z,60.86
2022-10-05T11:41:32.724Z,60.95
2022-10-05T11:42:32.713Z,60.39
2022-10-05T11:43:32.704Z,60.46
2022-10-05T11:44:32.704Z,60.75
2022-10-05T11:45:32.697Z,59.41
2022-10-05T11:46:32.764Z,59.79
2022-10-05T11:47:32.684Z,59.57
2022-10-05T11:48:32.702Z,62.29
2022-10-05T11:49:32.670Z,62.25
2022-10-05T11:50:32.644Z,61.26
2022-10-05T11:51:33.650Z,60.31
2022-10-05T11:52:32.736Z,61.39
2022-10-05T11:53:32.645Z,61.11
2022-10-05T11:54:46.584Z,63.04
2022-10-05T11:55:34.619Z,61.41
2022-10-05T11:56:32.623Z,60.99
2022-10-05T11:57:32.598Z,60.48
2022-10-05T11:58:33.599Z,59.77
2022-10-05T11:59:32.583Z,58.57
2022-10-05T12:00:32.592Z,59.03
2022-10-05T12:01:32.596Z,60.25
2022-10-05T12:02:32.647Z,59.71
2022-10-05T12:03:32.642Z,60.58
2022-10-05T12:04:32.565Z,61.28
2022-10-05T12:05:32.540Z,59.33
2022-10-05T12:06:32.549Z,60.47
2022-10-05T12:07:32.557Z,61.05
2022-10-05T12:08:32.579Z,59.24
2022-10-05T12:09:32.526Z,60.10
2022-10-05T12:10:32.528Z,60.40
2022-10-05T12:11:32.515Z,60.84
2022-10-05T12:12:32.528Z,59.20
2022-10-05T12:13:32.508Z,59.77
2022-10-05T12:14:32.496Z,59.92
2022-10-05T12:15:32.489Z,57.99
2022-10-05T12:16:32.484Z,58.62
2022-10-05T12:17:32.476Z,59.23
2022-10-05T12:18:32.493Z,60.40
2022-10-05T12:19:32.465Z,58.80
2022-10-05T12:20:32.452Z,60.09
2022-10-05T12:21:32.458Z,60.37
2022-10-05T12:22:32.452Z,60.05
2022-10-05T12:23:32.460Z,59.52
2022-10-05T12:24:32.432Z,59.39
2022-10-05T12:25:32.423Z,59.61
2022-10-05T12:26:32.419Z,60.67
2022-10-05T12:27:32.413Z,60.81
2022-10-05T12:28:32.495Z,60.69
2022-10-05T12:29:32.397Z,61.32
2022-10-05T12:30:32.410Z,62.17
2022-10-05T12:31:32.520Z,60.54
2022-10-05T12:32:32.394Z,61.20
2022-10-05T12:33:32.375Z,61.29
2022-10-05T12:34:32.378Z,59.25
2022-10-05T12:35:47.495Z,59.32
2022-10-05T12:36:59.228Z,60.34
2022-10-05T12:37:34.342Z,61.39
2022-10-05T12:38:32.350Z,61.13
2022-10-05T12:39:32.322Z,59.45
2022-10-05T12:40:32.321Z,59.48
2022-10-05T12:41:32.715Z,59.96
2022-10-05T12:42:32.297Z,59.97
2022-10-05T12:43:32.310Z,59.32
2022-10-05T12:44:32.294Z,60.82
2022-10-05T12:45:32.357Z,59.72
2022-10-05T12:46:32.309Z,61.14
2022-10-05T12:47:32.283Z,61.31
2022-10-05T12:48:32.266Z,59.22
2022-10-05T12:49:32.272Z,60.00
2022-10-05T12:50:32.255Z,59.92
2022-10-05T12:51:32.241Z,59.95
2022-10-05T12:52:32.254Z,60.62